createdAt,value
2023-01-20T00:01:11.990Z,16.50
2023-01-20T00:03:40.597Z,16.20
2023-01-20T00:06:09.353Z,15.50
2023-01-20T00:08:38.386Z,17.00
2023-01-20T00:11:08.232Z,16.10
2023-01-20T00:13:37.012Z,18.90
2023-01-20T00:16:08.697Z,18.00
2023-01-20T00:18:37.141Z,18.10
2023-01-20T00:21:06.129Z,19.00
2023-01-20T00:23:34.103Z,17.40
2023-01-20T00:26:09.646Z,17.70
2023-01-20T00:28:37.825Z,17.40
2023-01-20T00:31:16.143Z,16.30
2023-01-20T00:33:45.014Z,16.00
2023-01-20T00:36:14.015Z,16.40
2023-01-20T00:38:42.217Z,16.30
2023-01-20T00:41:10.464Z,17.20
2023-01-20T00:43:39.201Z,17.00
2023-01-20T00:46:07.519Z,16.30
2023-01-20T00:48:35.912Z,15.90
2023-01-20T00:51:04.504Z,15.10
2023-01-20T00:53:32.549Z,16.00
2023-01-20T00:56:00.857Z,15.10
2023-01-20T00:58:28.703Z,14.20
2023-01-20T01:00:58.922Z,14.90
2023-01-20T01:03:30.045Z,14.80
2023-01-20T01:06:12.357Z,14.80
2023-01-20T01:08:40.402Z,14.60
2023-01-20T01:11:08.585Z,15.20
2023-01-20T01:13:38.654Z,15.00
2023-01-20T01:16:11.599Z,15.50
2023-01-20T01:18:39.943Z,15.50
2023-01-20T01:21:12.666Z,16.60
2023-01-20T01:23:40.594Z,16.50
2023-01-20T01:26:08.722Z,15.70
2023-01-20T01:28:36.650Z,16.60
2023-01-20T01:31:05.367Z,13.60
2023-01-20T01:33:33.842Z,14.00
2023-01-20T01:36:03.149Z,13.80
2023-01-20T01:38:30.996Z,14.50
2023-01-20T01:40:59.063Z,14.20
2023-01-20T01:43:31.332Z,14.40
2023-01-20T01:45:59.850Z,14.50
2023-01-20T01:48:30.624Z,15.30
2023-01-20T01:51:01.793Z,16.10
2023-01-20T01:53:32.523Z,17.20
2023-01-20T01:56:01.984Z,16.10
2023-01-20T01:58:32.234Z,16.10
2023-01-20T02:01:00.107Z,17.30
2023-01-20T02:03:31.874Z,17.50
2023-01-20T02:06:00.361Z,18.60
2023-01-20T02:08:28.559Z,18.10
2023-01-20T02:10:56.539Z,17.30
2023-01-20T02:13:24.465Z,17.30
2023-01-20T02:15:57.452Z,17.70
2023-01-20T02:18:48.767Z,18.20
2023-01-20T02:21:16.517Z,17.10
2023-01-20T02:23:44.492Z,17.30
2023-01-20T02:26:31.613Z,17.70
2023-01-20T02:29:08.767Z,17.70
2023-01-20T02:31:55.598Z,17.30
2023-01-20T02:34:29.629Z,18.70
2023-01-20T02:36:58.973Z,19.70
2023-01-20T02:39:33.026Z,18.90
2023-01-20T02:42:08.901Z,18.10
2023-01-20T02:44:47.192Z,18.80
2023-01-20T02:47:19.253Z,20.40
2023-01-20T02:49:59.403Z,21.70
2023-01-20T02:52:29.610Z,20.40
2023-01-20T02:54:59.354Z,21.10
2023-01-20T02:57:37.778Z,21.40
2023-01-20T03:00:12.481Z,18.00
2023-01-20T03:02:42.183Z,17.90
2023-01-20T03:05:13.184Z,17.50
2023-01-20T03:07:43.772Z,15.80
2023-01-20T03:10:14.485Z,17.10
2023-01-20T03:12:42.261Z,16.40
2023-01-20T03:15:11.051Z,15.50
2023-01-20T03:17:38.942Z,15.30
2023-01-20T03:20:07.722Z,16.60
2023-01-20T03:22:36.707Z,16.90
2023-01-20T03:25:05.063Z,17.30
2023-01-20T03:27:33.443Z,19.10
2023-01-20T03:30:01.304Z,30.00
2023-01-20T03:32:29.678Z,32.40
2023-01-20T03:34:58.714Z,22.50
2023-01-20T03:37:27.533Z,19.40
2023-01-20T03:39:56.504Z,17.80
2023-01-20T03:42:28.003Z,16.70
2023-01-20T03:44:55.747Z,15.80
2023-01-20T03:47:36.224Z,17.50
2023-01-20T03:50:21.451Z,16.90
2023-01-20T03:52:53.055Z,16.80
2023-01-20T03:55:23.580Z,17.40
2023-01-20T03:57:58.289Z,18.50
2023-01-20T04:00:29.678Z,20.90
2023-01-20T04:02:58.857Z,23.60
2023-01-20T04:05:27.400Z,23.70
2023-01-20T04:08:00.428Z,18.80
2023-01-20T04:10:29.833Z,17.80
2023-01-20T04:12:57.797Z,17.40
2023-01-20T04:15:28.532Z,18.10
2023-01-20T04:17:57.923Z,20.00
2023-01-20T04:20:27.894Z,23.90
2023-01-20T04:22:57.749Z,27.40
2023-01-20T04:25:27.880Z,23.40
2023-01-20T04:27:55.875Z,21.80
2023-01-20T04:30:24.228Z,20.90
2023-01-20T04:32:52.202Z,19.80
2023-01-20T04:35:20.371Z,20.70
2023-01-20T04:37:48.120Z,19.80
2023-01-20T04:40:16.332Z,18.00
2023-01-20T04:42:44.143Z,19.70
2023-01-20T04:45:15.328Z,21.80
2023-01-20T04:47:43.992Z,21.60
2023-01-20T04:50:12.679Z,22.20
2023-01-20T04:52:40.634Z,20.60
2023-01-20T04:55:09.427Z,19.30
2023-01-20T04:57:37.500Z,20.80
2023-01-20T05:00:06.773Z,19.30
2023-01-20T05:02:35.383Z,20.20
2023-01-20T05:05:03.440Z,19.90
2023-01-20T05:07:31.311Z,19.40
2023-01-20T05:09:59.198Z,20.30
2023-01-20T05:12:27.048Z,20.40
2023-01-20T05:14:55.418Z,20.20
2023-01-20T05:17:23.307Z,20.60
2023-01-20T05:19:51.144Z,20.20
2023-01-20T05:22:19.132Z,20.50
2023-01-20T05:24:47.035Z,19.60
2023-01-20T05:27:15.159Z,19.50
2023-01-20T05:29:43.636Z,20.50
2023-01-20T05:32:11.922Z,19.20
2023-01-20T05:34:39.990Z,20.10
2023-01-20T05:37:08.054Z,20.00
2023-01-20T05:39:36.012Z,20.60
2023-01-20T05:42:04.192Z,21.40
2023-01-20T05:44:32.004Z,19.90
2023-01-20T05:46:59.921Z,20.30
2023-01-20T05:49:28.516Z,19.30
2023-01-20T05:51:56.885Z,19.40
2023-01-20T05:54:26.404Z,20.40
2023-01-20T05:56:54.765Z,20.80
2023-01-20T05:59:23.416Z,19.40
2023-01-20T06:01:51.831Z,19.90
2023-01-20T06:04:20.056Z,20.10
2023-01-20T06:06:48.070Z,21.40
2023-01-20T06:09:16.023Z,21.10
2023-01-20T06:11:44.193Z,21.10
2023-01-20T06:14:12.487Z,20.50
2023-01-20T06:16:40.462Z,22.10
2023-01-20T06:19:08.422Z,21.90
2023-01-20T06:21:36.405Z,21.10
2023-01-20T06:24:04.621Z,21.40
2023-01-20T06:26:32.423Z,21.50
2023-01-20T06:29:03.121Z,20.50
2023-01-20T06:31:31.382Z,20.90
2023-01-20T06:33:59.201Z,21.50
2023-01-20T06:36:27.102Z,21.90
2023-01-20T06:38:55.039Z,20.70
2023-01-20T06:41:23.518Z,22.10
2023-01-20T06:43:52.375Z,22.20
2023-01-20T06:46:20.541Z,20.40
2023-01-20T06:48:48.956Z,21.50
2023-01-20T06:51:18.365Z,22.10
2023-01-20T06:53:47.669Z,21.20
2023-01-20T06:56:16.051Z,22.10
2023-01-20T06:58:45.039Z,22.30
2023-01-20T07:01:18.821Z,24.70
2023-01-20T07:03:46.899Z,25.60
2023-01-20T07:06:20.099Z,28.30
2023-01-20T07:08:48.478Z,38.10
2023-01-20T07:11:16.543Z,44.50
2023-01-20T07:13:44.511Z,33.50
2023-01-20T07:16:15.352Z,31.30
2023-01-20T07:18:47.204Z,27.50
2023-01-20T07:21:15.478Z,27.10
2023-01-20T07:23:43.186Z,27.10
2023-01-20T07:26:12.757Z,28.40
2023-01-20T07:28:40.997Z,28.30
2023-01-20T07:31:11.175Z,27.10
2023-01-20T07:33:39.495Z,25.60
2023-01-20T07:36:08.375Z,27.60
2023-01-20T07:38:37.005Z,26.30
2023-01-20T07:41:06.383Z,27.70
2023-01-20T07:43:34.665Z,34.20
2023-01-20T07:46:03.390Z,35.10
2023-01-20T07:48:32.339Z,37.80
2023-01-20T07:51:05.791Z,41.00
2023-01-20T07:53:35.956Z,39.80
2023-01-20T07:56:04.703Z,33.40
2023-01-20T07:58:32.831Z,31.00
2023-01-20T08:01:11.262Z,29.90
2023-01-20T08:03:39.501Z,30.30
2023-01-20T08:06:08.595Z,27.20
2023-01-20T08:08:37.154Z,27.30
2023-01-20T08:11:06.177Z,25.20
2023-01-20T08:13:34.352Z,23.20
2023-01-20T08:16:07.216Z,24.30
2023-01-20T08:18:35.615Z,30.30
2023-01-20T08:21:06.694Z,24.60
2023-01-20T08:23:35.695Z,21.40
2023-01-20T08:26:05.467Z,22.50
2023-01-20T08:28:36.930Z,21.10
2023-01-20T08:31:06.336Z,22.20
2023-01-20T08:33:34.778Z,20.90
2023-01-20T08:36:06.803Z,20.30
2023-01-20T08:38:34.968Z,21.20
2023-01-20T08:41:07.058Z,22.50
2023-01-20T08:43:35.663Z,21.70
2023-01-20T08:46:06.527Z,25.40
2023-01-20T08:48:35.491Z,25.20
2023-01-20T08:51:04.409Z,22.80
2023-01-20T08:53:32.356Z,21.80
2023-01-20T08:56:01.642Z,22.20
2023-01-20T08:58:30.036Z,25.00
2023-01-20T09:00:57.850Z,24.70
2023-01-20T09:03:26.328Z,25.80
2023-01-20T09:05:54.178Z,25.90
2023-01-20T09:08:22.376Z,24.50
2023-01-20T09:10:50.279Z,24.40
2023-01-20T09:13:18.172Z,23.90
2023-01-20T09:15:51.329Z,24.70
2023-01-20T09:18:19.244Z,28.10
2023-01-20T09:20:47.191Z,28.80
2023-01-20T09:23:15.245Z,26.10
2023-01-20T09:25:43.205Z,26.00
2023-01-20T09:28:12.211Z,23.90
2023-01-20T09:30:40.135Z,27.00
2023-01-20T09:33:09.671Z,24.70
2023-01-20T09:35:37.502Z,22.50
2023-01-20T09:38:24.595Z,27.10
2023-01-20T09:41:30.096Z,36.00
2023-01-20T09:44:15.807Z,30.20
2023-01-20T09:47:19.583Z,48.20
2023-01-20T09:50:16.169Z,78.90
2023-01-20T09:55:32.336Z,29.20
2023-01-20T09:58:26.315Z,25.90
2023-01-20T10:01:13.343Z,27.10
2023-01-20T10:06:16.147Z,40.60
2023-01-20T10:09:03.673Z,42.70
2023-01-20T10:11:40.340Z,44.80
2023-01-20T10:14:15.704Z,42.70
2023-01-20T10:16:49.474Z,43.70
2023-01-20T10:19:28.392Z,39.10
2023-01-20T10:22:02.307Z,30.90
2023-01-20T10:24:36.486Z,29.80
2023-01-20T10:27:05.411Z,26.40
2023-01-20T10:29:37.477Z,25.10
2023-01-20T10:32:24.797Z,26.50
2023-01-20T10:34:56.570Z,27.10
2023-01-20T10:37:25.926Z,26.30
2023-01-20T10:40:17.307Z,31.00
2023-01-20T10:42:49.907Z,25.40
2023-01-20T10:45:28.014Z,22.30
2023-01-20T10:48:20.518Z,21.40
2023-01-20T10:50:56.573Z,22.50
2023-01-20T10:53:44.056Z,21.50
2023-01-20T10:56:29.164Z,20.60
2023-01-20T10:58:58.496Z,21.80
2023-01-20T11:01:26.372Z,20.70
2023-01-20T11:03:54.380Z,22.00
2023-01-20T11:06:25.404Z,20.60
2023-01-20T11:08:56.228Z,22.50
2023-01-20T11:11:25.055Z,21.50
2023-01-20T11:13:53.429Z,21.20
2023-01-20T11:16:24.900Z,21.10
2023-01-20T11:18:57.096Z,20.00
2023-01-20T11:21:25.723Z,18.10
2023-01-20T11:23:58.120Z,19.10
2023-01-20T11:26:31.671Z,18.30
2023-01-20T11:29:08.920Z,18.30
2023-01-20T11:34:19.895Z,16.20
2023-01-20T11:36:48.032Z,17.50
2023-01-20T11:39:26.649Z,18.30
2023-01-20T11:42:13.258Z,17.30
2023-01-20T11:44:45.221Z,18.30
2023-01-20T11:47:16.978Z,18.40
2023-01-20T11:49:45.312Z,17.90
2023-01-20T11:52:20.101Z,19.90
2023-01-20T11:54:48.250Z,22.70
2023-01-20T11:57:17.449Z,21.60
2023-01-20T11:59:49.737Z,22.70
2023-01-20T12:02:24.862Z,18.90
2023-01-20T12:04:53.357Z,19.60
2023-01-20T12:07:24.388Z,18.20
2023-01-20T12:09:59.615Z,18.90
2023-01-20T12:12:40.088Z,20.40
2023-01-20T12:15:19.588Z,21.80
2023-01-20T12:18:01.067Z,21.60
2023-01-20T12:20:35.467Z,20.90
2023-01-20T12:23:10.547Z,22.10
2023-01-20T12:25:43.529Z,23.00
2023-01-20T12:28:27.885Z,19.90
2023-01-20T12:31:06.468Z,16.60
2023-01-20T12:33:38.775Z,17.60
2023-01-20T12:36:07.253Z,16.70
2023-01-20T12:39:05.587Z,17.00
2023-01-20T12:41:52.752Z,15.10
2023-01-20T12:46:48.998Z,16.10
2023-01-20T12:49:23.430Z,17.90
2023-01-20T12:51:59.013Z,18.40
2023-01-20T12:54:47.771Z,15.90
2023-01-20T12:57:22.592Z,16.50
2023-01-20T12:59:59.831Z,17.30
2023-01-20T13:02:40.100Z,17.10
2023-01-20T13:05:27.484Z,18.90
2023-01-20T13:07:58.549Z,22.90
2023-01-20T13:10:26.524Z,25.70
2023-01-20T13:13:07.184Z,20.60
2023-01-20T13:15:42.121Z,22.80
2023-01-20T13:18:28.668Z,27.00
2023-01-20T13:20:57.093Z,26.00
2023-01-20T13:23:26.486Z,26.30
2023-01-20T13:25:55.670Z,23.70
2023-01-20T13:28:25.177Z,24.40
2023-01-20T13:30:54.830Z,23.50
2023-01-20T13:33:28.506Z,24.60
2023-01-20T13:35:57.500Z,26.60
2023-01-20T13:38:33.452Z,24.60
2023-01-20T13:41:06.219Z,24.30
2023-01-20T13:43:34.213Z,24.40
2023-01-20T13:46:05.050Z,24.60
2023-01-20T13:48:34.171Z,23.40
2023-01-20T13:51:29.848Z,22.30
2023-01-20T13:54:16.306Z,22.00
2023-01-20T13:56:44.129Z,21.00
2023-01-20T13:59:11.990Z,23.30
2023-01-20T14:01:40.007Z,21.40
2023-01-20T14:04:15.810Z,21.20
2023-01-20T14:06:48.193Z,21.80
2023-01-20T14:09:23.308Z,20.30
2023-01-20T14:11:52.203Z,20.90
2023-01-20T14:14:21.802Z,21.40
2023-01-20T14:16:50.080Z,20.00
2023-01-20T14:19:31.128Z,20.20
2023-01-20T14:22:04.435Z,19.60
2023-01-20T14:24:36.636Z,18.80
2023-01-20T14:27:21.803Z,20.30
2023-01-20T14:29:51.391Z,19.40
2023-01-20T14:32:22.377Z,20.00
2023-01-20T14:34:53.469Z,20.10
2023-01-20T14:37:29.050Z,20.70
2023-01-20T14:39:59.104Z,20.10
2023-01-20T14:42:28.296Z,22.70
2023-01-20T14:44:57.025Z,22.20
2023-01-20T14:47:26.021Z,22.70
2023-01-20T14:49:54.365Z,22.30
2023-01-20T14:52:24.853Z,24.40
2023-01-20T14:54:56.329Z,23.80
2023-01-20T14:57:31.500Z,23.50
2023-01-20T15:00:19.892Z,24.60
2023-01-20T15:03:09.563Z,23.60
2023-01-20T15:05:42.302Z,23.00
2023-01-20T15:08:26.315Z,24.20
2023-01-20T15:11:09.995Z,23.50
2023-01-20T15:13:38.627Z,25.10
2023-01-20T15:16:08.459Z,23.70
2023-01-20T15:18:37.829Z,24.20
2023-01-20T15:21:32.687Z,22.80
2023-01-20T15:24:20.745Z,24.00
2023-01-20T15:26:51.960Z,23.30
2023-01-20T15:29:24.330Z,24.90
2023-01-20T15:31:54.961Z,25.10
2023-01-20T15:34:24.710Z,23.90
2023-01-20T15:36:54.064Z,25.40
2023-01-20T15:39:23.279Z,26.80
2023-01-20T15:41:55.190Z,28.30
2023-01-20T15:44:26.792Z,27.20
2023-01-20T15:46:57.716Z,29.40
2023-01-20T15:49:26.406Z,30.40
2023-01-20T15:51:55.381Z,28.50
2023-01-20T15:54:23.689Z,28.50
2023-01-20T15:56:51.830Z,30.30
2023-01-20T15:59:23.566Z,29.40
2023-01-20T16:01:52.998Z,31.20
2023-01-20T16:04:21.896Z,30.30
2023-01-20T16:06:50.477Z,32.20
2023-01-20T16:09:25.654Z,30.70
2023-01-20T16:11:54.621Z,31.10
2023-01-20T16:14:22.954Z,31.80
2023-01-20T16:16:51.464Z,31.90
2023-01-20T16:19:21.338Z,34.10
2023-01-20T16:21:49.857Z,32.00
2023-01-20T16:24:17.938Z,31.40
2023-01-20T16:26:47.210Z,31.10
2023-01-20T16:29:16.333Z,33.20
2023-01-20T16:31:44.830Z,32.90
2023-01-20T16:34:12.987Z,31.20
2023-01-20T16:36:41.163Z,35.00
2023-01-20T16:39:10.313Z,34.10
2023-01-20T16:41:39.235Z,34.10
2023-01-20T16:44:08.061Z,35.40
2023-01-20T16:46:36.712Z,31.00
2023-01-20T16:49:05.530Z,33.40
2023-01-20T16:51:34.809Z,37.00
2023-01-20T16:54:04.675Z,31.30
2023-01-20T16:56:33.849Z,33.20
2023-01-20T16:59:03.580Z,33.80
2023-01-20T17:01:33.438Z,36.90
2023-01-20T17:04:03.306Z,36.00
2023-01-20T17:06:34.489Z,33.60
2023-01-20T17:09:05.807Z,32.90
2023-01-20T17:11:36.160Z,34.00
2023-01-20T17:14:06.623Z,32.80
2023-01-20T17:16:35.615Z,36.90
2023-01-20T17:19:06.715Z,36.90
2023-01-20T17:21:37.777Z,37.00
2023-01-20T17:24:07.064Z,37.40
2023-01-20T17:26:38.094Z,34.60
2023-01-20T17:29:09.448Z,36.10
2023-01-20T17:31:43.035Z,36.50
2023-01-20T17:34:11.432Z,36.80
2023-01-20T17:36:42.388Z,37.40
2023-01-20T17:39:10.543Z,38.70
2023-01-20T17:41:38.828Z,37.30
2023-01-20T17:44:07.378Z,38.40
2023-01-20T17:46:35.376Z,40.20
2023-01-20T17:49:07.984Z,40.00
2023-01-20T17:51:36.217Z,38.40
2023-01-20T17:54:04.471Z,36.80
2023-01-20T17:56:33.174Z,39.50
2023-01-20T17:59:01.602Z,40.40
2023-01-20T18:01:32.085Z,42.60
2023-01-20T18:04:01.176Z,41.50
2023-01-20T18:06:29.854Z,41.70
2023-01-20T18:09:00.678Z,37.30
2023-01-20T18:11:31.059Z,39.20
2023-01-20T18:14:00.659Z,40.50
2023-01-20T18:16:30.918Z,39.90
2023-01-20T18:19:00.036Z,37.70
2023-01-20T18:21:30.325Z,38.40
2023-01-20T18:23:59.059Z,36.00
2023-01-20T18:26:30.178Z,38.20
2023-01-20T18:29:01.379Z,36.90
2023-01-20T18:31:32.501Z,35.90
2023-01-20T18:34:02.167Z,33.70
2023-01-20T18:36:38.031Z,36.00
2023-01-20T18:39:13.983Z,34.40
2023-01-20T18:41:42.478Z,35.90
2023-01-20T18:44:11.049Z,35.10
2023-01-20T18:46:39.614Z,35.90
2023-01-20T18:49:09.828Z,37.40
2023-01-20T18:51:38.549Z,37.20
2023-01-20T18:54:09.864Z,23.70
2023-01-20T18:56:40.009Z,34.00
2023-01-20T18:59:08.549Z,35.10
2023-01-20T19:01:40.078Z,34.60
2023-01-20T19:04:10.977Z,37.70
2023-01-20T19:06:41.238Z,46.30
2023-01-20T19:09:09.724Z,54.80
2023-01-20T19:11:41.400Z,35.40
2023-01-20T19:14:13.808Z,32.10
2023-01-20T19:16:49.647Z,33.80
2023-01-20T19:19:19.302Z,27.10
2023-01-20T19:21:50.391Z,31.40
2023-01-20T19:24:20.523Z,29.40
2023-01-20T19:26:49.098Z,29.00
2023-01-20T19:29:19.126Z,27.50
2023-01-20T19:31:49.486Z,31.20
2023-01-20T19:34:22.146Z,30.50
2023-01-20T19:36:51.309Z,35.70
2023-01-20T19:39:21.495Z,34.00
2023-01-20T19:41:50.424Z,29.90
2023-01-20T19:44:21.053Z,35.00
2023-01-20T19:46:51.383Z,28.10
2023-01-20T19:49:20.065Z,30.50
2023-01-20T19:51:49.566Z,28.80
2023-01-20T19:54:18.151Z,37.60
2023-01-20T19:56:46.943Z,31.20
2023-01-20T19:59:15.717Z,37.90
2023-01-20T20:01:44.852Z,30.90
2023-01-20T20:04:13.817Z,27.60
2023-01-20T20:06:47.612Z,31.90
2023-01-20T20:09:19.219Z,27.40
2023-01-20T20:11:47.890Z,30.20
2023-01-20T20:14:17.563Z,30.70
2023-01-20T20:16:45.527Z,30.50
2023-01-20T20:19:18.403Z,30.20
2023-01-20T20:21:46.939Z,29.90
2023-01-20T20:24:16.599Z,32.80
2023-01-20T20:26:46.412Z,31.20
2023-01-20T20:29:15.712Z,31.60
2023-01-20T20:31:44.068Z,32.00
2023-01-20T20:34:17.615Z,30.00
2023-01-20T20:36:47.415Z,29.30
2023-01-20T20:39:17.966Z,29.00
2023-01-20T20:41:47.121Z,28.80
2023-01-20T20:44:15.289Z,26.80
2023-01-20T20:46:43.885Z,27.80
2023-01-20T20:49:13.998Z,25.50
2023-01-20T20:51:43.261Z,33.00
2023-01-20T20:54:16.493Z,28.10
2023-01-20T20:56:45.395Z,28.70
2023-01-20T20:59:13.560Z,24.20
2023-01-20T21:01:42.006Z,26.70
2023-01-20T21:04:11.845Z,26.30
2023-01-20T21:06:40.016Z,21.90
2023-01-20T21:09:08.895Z,21.70
2023-01-20T21:11:38.590Z,22.70
2023-01-20T21:14:07.694Z,22.80
2023-01-20T21:16:36.418Z,22.00
2023-01-20T21:19:05.423Z,26.70
2023-01-20T21:21:33.778Z,27.70
2023-01-20T21:24:02.091Z,21.60
2023-01-20T21:26:31.224Z,24.40
2023-01-20T21:29:02.376Z,25.80
2023-01-20T21:31:31.571Z,28.50
2023-01-20T21:34:00.718Z,26.10
2023-01-20T21:36:30.595Z,25.60
2023-01-20T21:38:59.157Z,28.50
2023-01-20T21:41:27.461Z,27.00
2023-01-20T21:44:14.071Z,21.40
2023-01-20T21:46:42.354Z,25.00
2023-01-20T21:49:29.391Z,28.10
2023-01-20T21:52:16.343Z,26.10
2023-01-20T21:54:45.835Z,23.50
2023-01-20T21:57:14.500Z,24.70
2023-01-20T21:59:43.253Z,19.60
2023-01-20T22:02:12.868Z,24.80
2023-01-20T22:04:41.613Z,24.30
2023-01-20T22:07:10.735Z,26.40
2023-01-20T22:09:39.960Z,22.80
2023-01-20T22:12:09.617Z,27.80
2023-01-20T22:14:38.508Z,21.60
2023-01-20T22:17:07.699Z,26.10
2023-01-20T22:19:36.179Z,24.70
2023-01-20T22:22:04.636Z,25.60
2023-01-20T22:24:32.719Z,25.60
2023-01-20T22:27:01.713Z,26.10
2023-01-20T22:29:30.006Z,26.20
2023-01-20T22:32:02.397Z,27.00
2023-01-20T22:34:30.955Z,28.10
2023-01-20T22:37:00.713Z,27.10
2023-01-20T22:39:29.044Z,27.50
2023-01-20T22:41:57.734Z,23.40
2023-01-20T22:44:26.198Z,24.80
2023-01-20T22:46:54.366Z,24.90
2023-01-20T22:49:24.673Z,25.20
2023-01-20T22:51:54.689Z,25.10
2023-01-20T22:54:24.118Z,24.00
2023-01-20T22:56:52.186Z,23.30
2023-01-20T22:59:22.566Z,25.70
2023-01-20T23:01:52.246Z,24.30
2023-01-20T23:04:20.997Z,20.80
2023-01-20T23:06:49.037Z,23.00
2023-01-20T23:09:16.992Z,23.20
2023-01-20T23:11:45.008Z,23.80
2023-01-20T23:14:13.664Z,21.20
2023-01-20T23:16:42.976Z,23.10
2023-01-20T23:19:11.161Z,23.00
2023-01-20T23:21:39.380Z,22.30
2023-01-20T23:24:09.142Z,22.40
2023-01-20T23:26:37.226Z,22.20
2023-01-20T23:29:05.904Z,23.50
2023-01-20T23:31:35.595Z,22.60
2023-01-20T23:34:03.724Z,23.80
2023-01-20T23:36:32.095Z,22.00
2023-01-20T23:39:00.131Z,21.20
2023-01-20T23:41:28.190Z,19.70
2023-01-20T23:43:56.574Z,21.60
2023-01-20T23:46:24.881Z,23.40
2023-01-20T23:48:52.719Z,22.10
2023-01-20T23:51:20.901Z,19.20
2023-01-20T23:53:49.561Z,18.00
2023-01-20T23:56:19.958Z,21.60
2023-01-20T23:58:48.482Z,20.80
